Terminal Aerodrome Forecast
Issued by NWS

Home | Current Version | Previous Version | Text Only | Print | Product List | Glossary On
Versions: 1 2 3 4 5 6 7 8 9 10 11 12
000
FTAK31 PAJN 261134
TAFAWG
TAF
PAWG 261134Z 2612/2712 VRB04KT P6SM VCFG SCT005 OVC050
     FM261600 VRB05KT P6SM BKN100
     FM262000 31005KT P6SM BKN150
      AMD LTD TO CLD VIS AND WIND 2612/2615=

USA.gov is the U.S. government's official web portal to all federal, state and local government web resources and services.